sensor_id;sensor_type;location;lat;lon;timestamp;P1;durP1;ratioP1;P2;durP2;ratioP2
13335;SDS011;6737;51.480;11.962;2023-01-24T00:01:20;24.47;;;16.23;;
13335;SDS011;6737;51.480;11.962;2023-01-24T00:03:46;23.40;;;15.10;;
13335;SDS011;6737;51.480;11.962;2023-01-24T00:06:12;26.50;;;16.50;;
13335;SDS011;6737;51.480;11.962;2023-01-24T00:08:38;22.97;;;15.50;;
13335;SDS011;6737;51.480;11.962;2023-01-24T00:11:05;25.90;;;15.70;;
13335;SDS011;6737;51.480;11.962;2023-01-24T00:13:34;24.63;;;15.83;;
13335;SDS011;6737;51.480;11.962;2023-01-24T00:16:01;23.23;;;15.20;;
13335;SDS011;6737;51.480;11.962;2023-01-24T00:18:28;24.40;;;15.33;;
13335;SDS011;6737;51.480;11.962;2023-01-24T00:21:04;25.13;;;15.53;;
13335;SDS011;6737;51.480;11.962;2023-01-24T00:23:34;25.10;;;15.03;;
13335;SDS011;6737;51.480;11.962;2023-01-24T00:26:01;21.57;;;14.13;;
13335;SDS011;6737;51.480;11.962;2023-01-24T00:28:28;23.27;;;14.03;;
13335;SDS011;6737;51.480;11.962;2023-01-24T00:30:53;22.47;;;14.27;;
13335;SDS011;6737;51.480;11.962;2023-01-24T00:33:19;21.80;;;14.23;;
13335;SDS011;6737;51.480;11.962;2023-01-24T00:35:45;21.43;;;14.00;;
13335;SDS011;6737;51.480;11.962;2023-01-24T00:38:10;21.17;;;13.90;;
13335;SDS011;6737;51.480;11.962;2023-01-24T00:40:36;19.83;;;13.57;;
13335;SDS011;6737;51.480;11.962;2023-01-24T00:43:02;22.03;;;13.73;;
13335;SDS011;6737;51.480;11.962;2023-01-24T00:45:28;20.00;;;13.13;;
13335;SDS011;6737;51.480;11.962;2023-01-24T00:47:53;18.97;;;13.33;;
13335;SDS011;6737;51.480;11.962;2023-01-24T00:50:19;21.53;;;13.63;;
13335;SDS011;6737;51.480;11.962;2023-01-24T00:52:45;20.23;;;13.17;;
13335;SDS011;6737;51.480;11.962;2023-01-24T00:55:11;20.97;;;13.53;;
13335;SDS011;6737;51.480;11.962;2023-01-24T00:57:37;19.67;;;12.63;;
13335;SDS011;6737;51.480;11.962;2023-01-24T01:00:03;21.67;;;13.63;;
13335;SDS011;6737;51.480;11.962;2023-01-24T01:02:29;19.73;;;12.67;;
13335;SDS011;6737;51.480;11.962;2023-01-24T01:04:55;18.00;;;12.07;;
13335;SDS011;6737;51.480;11.962;2023-01-24T01:07:21;19.83;;;13.23;;
13335;SDS011;6737;51.480;11.962;2023-01-24T01:09:48;20.57;;;12.97;;
13335;SDS011;6737;51.480;11.962;2023-01-24T01:12:13;20.13;;;13.23;;
13335;SDS011;6737;51.480;11.962;2023-01-24T01:14:39;19.93;;;12.53;;
13335;SDS011;6737;51.480;11.962;2023-01-24T01:17:05;20.30;;;13.20;;
13335;SDS011;6737;51.480;11.962;2023-01-24T01:19:31;19.87;;;12.73;;
13335;SDS011;6737;51.480;11.962;2023-01-24T01:21:56;19.03;;;12.57;;
13335;SDS011;6737;51.480;11.962;2023-01-24T01:24:22;19.17;;;12.47;;
13335;SDS011;6737;51.480;11.962;2023-01-24T01:26:48;20.07;;;12.83;;
13335;SDS011;6737;51.480;11.962;2023-01-24T01:29:14;20.23;;;12.20;;
13335;SDS011;6737;51.480;11.962;2023-01-24T01:31:39;19.00;;;12.40;;
13335;SDS011;6737;51.480;11.962;2023-01-24T01:34:05;20.43;;;12.43;;
13335;SDS011;6737;51.480;11.962;2023-01-24T01:36:31;20.43;;;12.87;;
13335;SDS011;6737;51.480;11.962;2023-01-24T01:38:57;22.80;;;12.90;;
13335;SDS011;6737;51.480;11.962;2023-01-24T01:41:22;19.17;;;12.37;;
13335;SDS011;6737;51.480;11.962;2023-01-24T01:43:48;17.13;;;11.93;;
13335;SDS011;6737;51.480;11.962;2023-01-24T01:46:50;18.00;;;12.53;;
13335;SDS011;6737;51.480;11.962;2023-01-24T01:49:20;18.73;;;12.00;;
13335;SDS011;6737;51.480;11.962;2023-01-24T01:51:52;18.70;;;12.27;;
13335;SDS011;6737;51.480;11.962;2023-01-24T01:54:24;18.17;;;12.07;;
13335;SDS011;6737;51.480;11.962;2023-01-24T01:57:02;19.97;;;12.30;;
13335;SDS011;6737;51.480;11.962;2023-01-24T01:59:35;18.03;;;12.23;;
13335;SDS011;6737;51.480;11.962;2023-01-24T02:02:06;18.30;;;12.07;;
13335;SDS011;6737;51.480;11.962;2023-01-24T02:04:35;16.67;;;11.93;;
13335;SDS011;6737;51.480;11.962;2023-01-24T02:09:49;19.07;;;12.33;;
13335;SDS011;6737;51.480;11.962;2023-01-24T02:12:28;19.07;;;11.93;;
13335;SDS011;6737;51.480;11.962;2023-01-24T02:15:02;17.90;;;11.97;;
13335;SDS011;6737;51.480;11.962;2023-01-24T02:17:52;19.17;;;13.23;;
13335;SDS011;6737;51.480;11.962;2023-01-24T02:25:36;18.30;;;12.00;;
13335;SDS011;6737;51.480;11.962;2023-01-24T02:28:10;18.93;;;12.33;;
13335;SDS011;6737;51.480;11.962;2023-01-24T02:30:36;19.27;;;12.07;;
13335;SDS011;6737;51.480;11.962;2023-01-24T02:35:38;16.47;;;11.73;;
13335;SDS011;6737;51.480;11.962;2023-01-24T02:38:05;20.23;;;12.63;;
13335;SDS011;6737;51.480;11.962;2023-01-24T02:40:36;16.63;;;11.67;;
13335;SDS011;6737;51.480;11.962;2023-01-24T02:43:03;17.87;;;11.20;;
13335;SDS011;6737;51.480;11.962;2023-01-24T02:45:31;16.00;;;11.00;;
13335;SDS011;6737;51.480;11.962;2023-01-24T02:47:59;17.73;;;11.70;;
13335;SDS011;6737;51.480;11.962;2023-01-24T02:50:26;18.77;;;12.13;;
13335;SDS011;6737;51.480;11.962;2023-01-24T02:52:54;17.40;;;11.30;;
13335;SDS011;6737;51.480;11.962;2023-01-24T02:55:38;16.60;;;11.63;;
13335;SDS011;6737;51.480;11.962;2023-01-24T02:58:24;16.07;;;11.57;;
13335;SDS011;6737;51.480;11.962;2023-01-24T03:00:51;17.87;;;11.03;;
13335;SDS011;6737;51.480;11.962;2023-01-24T03:03:16;16.83;;;11.17;;
13335;SDS011;6737;51.480;11.962;2023-01-24T03:05:42;16.77;;;10.53;;
13335;SDS011;6737;51.480;11.962;2023-01-24T03:08:29;17.47;;;10.83;;
13335;SDS011;6737;51.480;11.962;2023-01-24T03:10:57;16.00;;;10.87;;
13335;SDS011;6737;51.480;11.962;2023-01-24T03:13:24;15.97;;;10.60;;
13335;SDS011;6737;51.480;11.962;2023-01-24T03:16:09;15.97;;;10.57;;
13335;SDS011;6737;51.480;11.962;2023-01-24T03:18:54;17.17;;;11.17;;
13335;SDS011;6737;51.480;11.962;2023-01-24T03:21:38;15.77;;;10.73;;
13335;SDS011;6737;51.480;11.962;2023-01-24T03:24:23;16.03;;;11.17;;
13335;SDS011;6737;51.480;11.962;2023-01-24T03:27:07;16.23;;;10.57;;
13335;SDS011;6737;51.480;11.962;2023-01-24T03:29:52;18.43;;;11.03;;
13335;SDS011;6737;51.480;11.962;2023-01-24T03:32:36;17.77;;;11.90;;
13335;SDS011;6737;51.480;11.962;2023-01-24T03:35:21;17.60;;;11.03;;
13335;SDS011;6737;51.480;11.962;2023-01-24T03:37:46;15.30;;;10.87;;
13335;SDS011;6737;51.480;11.962;2023-01-24T03:40:31;20.10;;;11.63;;
13335;SDS011;6737;51.480;11.962;2023-01-24T03:42:58;17.67;;;10.73;;
13335;SDS011;6737;51.480;11.962;2023-01-24T03:45:26;18.73;;;11.93;;
13335;SDS011;6737;51.480;11.962;2023-01-24T03:47:55;16.67;;;10.97;;
13335;SDS011;6737;51.480;11.962;2023-01-24T03:50:42;17.80;;;11.87;;
13335;SDS011;6737;51.480;11.962;2023-01-24T03:53:28;18.23;;;10.87;;
13335;SDS011;6737;51.480;11.962;2023-01-24T03:55:57;18.70;;;11.23;;
13335;SDS011;6737;51.480;11.962;2023-01-24T03:58:25;17.60;;;10.87;;
13335;SDS011;6737;51.480;11.962;2023-01-24T04:00:52;17.37;;;10.93;;
13335;SDS011;6737;51.480;11.962;2023-01-24T04:03:19;18.53;;;11.20;;
13335;SDS011;6737;51.480;11.962;2023-01-24T04:05:46;17.50;;;11.30;;
13335;SDS011;6737;51.480;11.962;2023-01-24T04:08:13;18.30;;;11.80;;
13335;SDS011;6737;51.480;11.962;2023-01-24T04:10:39;16.47;;;11.40;;
13335;SDS011;6737;51.480;11.962;2023-01-24T04:13:05;16.77;;;11.60;;
13335;SDS011;6737;51.480;11.962;2023-01-24T04:15:32;17.97;;;11.67;;
13335;SDS011;6737;51.480;11.962;2023-01-24T04:17:58;17.80;;;11.00;;
13335;SDS011;6737;51.480;11.962;2023-01-24T04:20:26;16.17;;;10.70;;
13335;SDS011;6737;51.480;11.962;2023-01-24T04:22:53;17.20;;;10.77;;
13335;SDS011;6737;51.480;11.962;2023-01-24T04:25:20;16.03;;;11.00;;
13335;SDS011;6737;51.480;11.962;2023-01-24T04:27:46;16.03;;;10.87;;
13335;SDS011;6737;51.480;11.962;2023-01-24T04:30:13;17.67;;;11.37;;
13335;SDS011;6737;51.480;11.962;2023-01-24T04:32:40;15.03;;;10.40;;
13335;SDS011;6737;51.480;11.962;2023-01-24T04:35:07;16.40;;;10.93;;
13335;SDS011;6737;51.480;11.962;2023-01-24T04:37:34;17.00;;;11.00;;
13335;SDS011;6737;51.480;11.962;2023-01-24T04:40:00;18.57;;;11.27;;
13335;SDS011;6737;51.480;11.962;2023-01-24T04:42:26;16.77;;;11.37;;
13335;SDS011;6737;51.480;11.962;2023-01-24T04:44:52;17.47;;;11.07;;
13335;SDS011;6737;51.480;11.962;2023-01-24T04:47:18;17.83;;;11.10;;
13335;SDS011;6737;51.480;11.962;2023-01-24T04:49:43;16.07;;;10.83;;
13335;SDS011;6737;51.480;11.962;2023-01-24T04:52:12;16.60;;;10.77;;
13335;SDS011;6737;51.480;11.962;2023-01-24T04:54:39;16.73;;;10.93;;
13335;SDS011;6737;51.480;11.962;2023-01-24T04:57:05;19.97;;;12.00;;
13335;SDS011;6737;51.480;11.962;2023-01-24T04:59:31;16.03;;;10.93;;
13335;SDS011;6737;51.480;11.962;2023-01-24T05:01:57;16.30;;;11.10;;
13335;SDS011;6737;51.480;11.962;2023-01-24T05:04:23;19.40;;;11.97;;
13335;SDS011;6737;51.480;11.962;2023-01-24T05:06:48;17.80;;;11.70;;
13335;SDS011;6737;51.480;11.962;2023-01-24T05:09:14;18.20;;;10.77;;
13335;SDS011;6737;51.480;11.962;2023-01-24T05:11:40;18.57;;;11.70;;
13335;SDS011;6737;51.480;11.962;2023-01-24T05:14:09;18.50;;;11.90;;
13335;SDS011;6737;51.480;11.962;2023-01-24T05:16:35;22.17;;;11.97;;
13335;SDS011;6737;51.480;11.962;2023-01-24T05:19:01;17.17;;;10.93;;
13335;SDS011;6737;51.480;11.962;2023-01-24T05:21:28;18.40;;;11.70;;
13335;SDS011;6737;51.480;11.962;2023-01-24T05:23:54;16.93;;;10.83;;
13335;SDS011;6737;51.480;11.962;2023-01-24T05:26:20;18.40;;;12.00;;
13335;SDS011;6737;51.480;11.962;2023-01-24T05:28:51;16.93;;;11.97;;
13335;SDS011;6737;51.480;11.962;2023-01-24T05:31:18;16.67;;;10.77;;
13335;SDS011;6737;51.480;11.962;2023-01-24T05:33:45;16.70;;;11.67;;
13335;SDS011;6737;51.480;11.962;2023-01-24T05:36:12;17.33;;;11.40;;
13335;SDS011;6737;51.480;11.962;2023-01-24T05:38:46;16.77;;;11.60;;
13335;SDS011;6737;51.480;11.962;2023-01-24T05:41:14;19.23;;;11.83;;
13335;SDS011;6737;51.480;11.962;2023-01-24T05:43:42;18.60;;;11.60;;
13335;SDS011;6737;51.480;11.962;2023-01-24T05:46:09;20.10;;;11.80;;
13335;SDS011;6737;51.480;11.962;2023-01-24T05:48:41;18.30;;;11.97;;
13335;SDS011;6737;51.480;11.962;2023-01-24T05:51:08;19.77;;;12.27;;
13335;SDS011;6737;51.480;11.962;2023-01-24T05:53:37;18.37;;;12.70;;
13335;SDS011;6737;51.480;11.962;2023-01-24T05:56:05;18.00;;;11.97;;
13335;SDS011;6737;51.480;11.962;2023-01-24T05:58:35;20.00;;;12.40;;
13335;SDS011;6737;51.480;11.962;2023-01-24T06:03:46;20.27;;;12.30;;
13335;SDS011;6737;51.480;11.962;2023-01-24T06:06:17;18.83;;;11.43;;
13335;SDS011;6737;51.480;11.962;2023-01-24T06:08:44;20.13;;;12.37;;
13335;SDS011;6737;51.480;11.962;2023-01-24T06:11:17;19.30;;;12.53;;
13335;SDS011;6737;51.480;11.962;2023-01-24T06:13:45;19.83;;;11.80;;
13335;SDS011;6737;51.480;11.962;2023-01-24T06:16:20;19.63;;;12.23;;
13335;SDS011;6737;51.480;11.962;2023-01-24T06:18:49;18.20;;;11.70;;
13335;SDS011;6737;51.480;11.962;2023-01-24T06:23:59;18.80;;;12.20;;
13335;SDS011;6737;51.480;11.962;2023-01-24T06:26:25;20.53;;;12.67;;
13335;SDS011;6737;51.480;11.962;2023-01-24T06:28:51;19.10;;;11.90;;
13335;SDS011;6737;51.480;11.962;2023-01-24T06:39:20;22.27;;;12.23;;
13335;SDS011;6737;51.480;11.962;2023-01-24T06:41:47;20.60;;;12.67;;
13335;SDS011;6737;51.480;11.962;2023-01-24T06:44:13;19.67;;;11.90;;
13335;SDS011;6737;51.480;11.962;2023-01-24T06:46:39;20.47;;;12.53;;
13335;SDS011;6737;51.480;11.962;2023-01-24T06:49:05;18.97;;;12.07;;
13335;SDS011;6737;51.480;11.962;2023-01-24T06:51:31;19.33;;;12.03;;
13335;SDS011;6737;51.480;11.962;2023-01-24T06:53:57;19.83;;;11.83;;
13335;SDS011;6737;51.480;11.962;2023-01-24T06:56:24;19.50;;;12.00;;
13335;SDS011;6737;51.480;11.962;2023-01-24T06:58:49;19.57;;;12.13;;
13335;SDS011;6737;51.480;11.962;2023-01-24T07:01:15;19.83;;;12.37;;
13335;SDS011;6737;51.480;11.962;2023-01-24T07:03:41;20.00;;;11.50;;
13335;SDS011;6737;51.480;11.962;2023-01-24T07:06:07;19.57;;;11.50;;
13335;SDS011;6737;51.480;11.962;2023-01-24T07:08:32;19.17;;;12.10;;
13335;SDS011;6737;51.480;11.962;2023-01-24T07:10:58;20.37;;;11.70;;
13335;SDS011;6737;51.480;11.962;2023-01-24T07:13:24;20.40;;;12.00;;
13335;SDS011;6737;51.480;11.962;2023-01-24T07:15:50;18.97;;;11.90;;
13335;SDS011;6737;51.480;11.962;2023-01-24T07:18:16;18.07;;;11.80;;
13335;SDS011;6737;51.480;11.962;2023-01-24T07:20:43;20.13;;;12.60;;
13335;SDS011;6737;51.480;11.962;2023-01-24T07:23:28;19.70;;;12.10;;
13335;SDS011;6737;51.480;11.962;2023-01-24T07:25:55;23.17;;;12.20;;
13335;SDS011;6737;51.480;11.962;2023-01-24T07:28:21;19.03;;;12.23;;
13335;SDS011;6737;51.480;11.962;2023-01-24T07:30:47;21.33;;;12.03;;
13335;SDS011;6737;51.480;11.962;2023-01-24T07:33:14;19.30;;;11.87;;
13335;SDS011;6737;51.480;11.962;2023-01-24T07:35:40;18.93;;;12.73;;
13335;SDS011;6737;51.480;11.962;2023-01-24T07:38:06;18.17;;;11.40;;
13335;SDS011;6737;51.480;11.962;2023-01-24T07:40:32;17.43;;;11.73;;
13335;SDS011;6737;51.480;11.962;2023-01-24T07:43:01;19.80;;;12.47;;
13335;SDS011;6737;51.480;11.962;2023-01-24T07:45:27;20.37;;;12.30;;
13335;SDS011;6737;51.480;11.962;2023-01-24T07:47:54;21.83;;;13.23;;
13335;SDS011;6737;51.480;11.962;2023-01-24T07:50:24;18.90;;;12.07;;
13335;SDS011;6737;51.480;11.962;2023-01-24T07:52:51;21.40;;;12.37;;
13335;SDS011;6737;51.480;11.962;2023-01-24T07:55:18;17.93;;;11.67;;
13335;SDS011;6737;51.480;11.962;2023-01-24T07:57:45;21.40;;;12.90;;
13335;SDS011;6737;51.480;11.962;2023-01-24T08:00:11;21.13;;;12.53;;
13335;SDS011;6737;51.480;11.962;2023-01-24T08:02:39;21.23;;;12.20;;
13335;SDS011;6737;51.480;11.962;2023-01-24T08:05:05;18.67;;;12.37;;
13335;SDS011;6737;51.480;11.962;2023-01-24T08:07:31;20.23;;;12.23;;
13335;SDS011;6737;51.480;11.962;2023-01-24T08:09:57;21.97;;;12.60;;
13335;SDS011;6737;51.480;11.962;2023-01-24T08:12:23;23.40;;;12.97;;
13335;SDS011;6737;51.480;11.962;2023-01-24T08:14:49;21.07;;;12.83;;
13335;SDS011;6737;51.480;11.962;2023-01-24T08:17:15;19.80;;;12.97;;
13335;SDS011;6737;51.480;11.962;2023-01-24T08:19:40;24.50;;;13.23;;
13335;SDS011;6737;51.480;11.962;2023-01-24T08:22:06;20.83;;;12.67;;
13335;SDS011;6737;51.480;11.962;2023-01-24T08:24:32;20.97;;;13.00;;
13335;SDS011;6737;51.480;11.962;2023-01-24T08:26:59;23.10;;;12.50;;
13335;SDS011;6737;51.480;11.962;2023-01-24T08:29:26;22.83;;;12.73;;
13335;SDS011;6737;51.480;11.962;2023-01-24T08:31:52;21.10;;;12.47;;
13335;SDS011;6737;51.480;11.962;2023-01-24T08:34:18;20.97;;;12.53;;
13335;SDS011;6737;51.480;11.962;2023-01-24T08:36:44;20.90;;;12.60;;
13335;SDS011;6737;51.480;11.962;2023-01-24T08:39:10;20.83;;;12.57;;
13335;SDS011;6737;51.480;11.962;2023-01-24T08:41:36;22.90;;;12.73;;
13335;SDS011;6737;51.480;11.962;2023-01-24T08:44:02;20.50;;;12.83;;
13335;SDS011;6737;51.480;11.962;2023-01-24T08:46:29;21.37;;;13.93;;
13335;SDS011;6737;51.480;11.962;2023-01-24T08:48:56;18.77;;;12.07;;
13335;SDS011;6737;51.480;11.962;2023-01-24T08:51:22;20.97;;;12.57;;
13335;SDS011;6737;51.480;11.962;2023-01-24T08:53:47;24.87;;;12.93;;
13335;SDS011;6737;51.480;11.962;2023-01-24T08:56:13;20.33;;;12.47;;
13335;SDS011;6737;51.480;11.962;2023-01-24T08:58:39;21.57;;;13.23;;
13335;SDS011;6737;51.480;11.962;2023-01-24T09:01:08;21.80;;;12.50;;
13335;SDS011;6737;51.480;11.962;2023-01-24T09:03:34;20.87;;;13.10;;
13335;SDS011;6737;51.480;11.962;2023-01-24T09:06:01;23.23;;;13.40;;
13335;SDS011;6737;51.480;11.962;2023-01-24T09:08:28;25.40;;;13.80;;
13335;SDS011;6737;51.480;11.962;2023-01-24T09:10:53;23.73;;;13.30;;
13335;SDS011;6737;51.480;11.962;2023-01-24T09:13:23;22.37;;;13.40;;
13335;SDS011;6737;51.480;11.962;2023-01-24T09:15:50;23.87;;;13.70;;
13335;SDS011;6737;51.480;11.962;2023-01-24T09:18:16;24.33;;;13.83;;
13335;SDS011;6737;51.480;11.962;2023-01-24T09:20:42;24.93;;;14.17;;
13335;SDS011;6737;51.480;11.962;2023-01-24T09:23:08;23.93;;;14.00;;
13335;SDS011;6737;51.480;11.962;2023-01-24T09:25:37;24.97;;;15.10;;
13335;SDS011;6737;51.480;11.962;2023-01-24T09:28:04;26.37;;;14.47;;
13335;SDS011;6737;51.480;11.962;2023-01-24T09:30:31;22.77;;;14.30;;
13335;SDS011;6737;51.480;11.962;2023-01-24T09:32:57;23.20;;;14.00;;
13335;SDS011;6737;51.480;11.962;2023-01-24T09:35:22;25.00;;;13.93;;
13335;SDS011;6737;51.480;11.962;2023-01-24T09:37:50;23.40;;;14.77;;
13335;SDS011;6737;51.480;11.962;2023-01-24T09:40:18;23.73;;;13.97;;
13335;SDS011;6737;51.480;11.962;2023-01-24T09:42:55;23.27;;;13.50;;
13335;SDS011;6737;51.480;11.962;2023-01-24T09:48:12;26.07;;;14.30;;
13335;SDS011;6737;51.480;11.962;2023-01-24T09:50:42;24.37;;;13.93;;
13335;SDS011;6737;51.480;11.962;2023-01-24T09:53:20;26.17;;;14.80;;
13335;SDS011;6737;51.480;11.962;2023-01-24T09:55:49;25.10;;;14.67;;
13335;SDS011;6737;51.480;11.962;2023-01-24T09:58:21;29.40;;;14.83;;
13335;SDS011;6737;51.480;11.962;2023-01-24T10:01:03;25.70;;;15.03;;
13335;SDS011;6737;51.480;11.962;2023-01-24T10:03:34;25.23;;;14.33;;
13335;SDS011;6737;51.480;11.962;2023-01-24T10:11:27;24.93;;;14.50;;
13335;SDS011;6737;51.480;11.962;2023-01-24T10:17:01;25.20;;;15.13;;
13335;SDS011;6737;51.480;11.962;2023-01-24T10:20:08;24.20;;;13.80;;
13335;SDS011;6737;51.480;11.962;2023-01-24T10:22:54;24.53;;;14.17;;
13335;SDS011;6737;51.480;11.962;2023-01-24T10:28:07;25.93;;;13.70;;
13335;SDS011;6737;51.480;11.962;2023-01-24T10:31:10;22.60;;;13.57;;
13335;SDS011;6737;51.480;11.962;2023-01-24T10:33:58;21.70;;;14.00;;
13335;SDS011;6737;51.480;11.962;2023-01-24T10:39:38;22.77;;;13.47;;
13335;SDS011;6737;51.480;11.962;2023-01-24T10:42:11;22.53;;;13.13;;
13335;SDS011;6737;51.480;11.962;2023-01-24T10:44:54;22.17;;;12.57;;
13335;SDS011;6737;51.480;11.962;2023-01-24T10:50:11;20.77;;;13.40;;
13335;SDS011;6737;51.480;11.962;2023-01-24T10:52:42;21.40;;;13.27;;
13335;SDS011;6737;51.480;11.962;2023-01-24T10:57:59;22.83;;;13.63;;
13335;SDS011;6737;51.480;11.962;2023-01-24T11:00:30;22.13;;;14.10;;
13335;SDS011;6737;51.480;11.962;2023-01-24T11:03:48;22.57;;;13.77;;
13335;SDS011;6737;51.480;11.962;2023-01-24T11:06:00;22.67;;;14.50;;
13335;SDS011;6737;51.480;11.962;2023-01-24T11:11:03;25.03;;;13.57;;
13335;SDS011;6737;51.480;11.962;2023-01-24T11:13:54;23.53;;;12.90;;
13335;SDS011;6737;51.480;11.962;2023-01-24T11:16:32;21.93;;;12.90;;
13335;SDS011;6737;51.480;11.962;2023-01-24T11:19:20;20.60;;;13.40;;
13335;SDS011;6737;51.480;11.962;2023-01-24T11:22:18;20.50;;;13.20;;
13335;SDS011;6737;51.480;11.962;2023-01-24T11:24:46;22.83;;;12.60;;
13335;SDS011;6737;51.480;11.962;2023-01-24T11:27:15;21.23;;;12.83;;
13335;SDS011;6737;51.480;11.962;2023-01-24T11:29:43;20.83;;;12.40;;
13335;SDS011;6737;51.480;11.962;2023-01-24T11:32:27;24.37;;;13.77;;
13335;SDS011;6737;51.480;11.962;2023-01-24T11:37:33;23.40;;;13.60;;
13335;SDS011;6737;51.480;11.962;2023-01-24T11:54:42;22.27;;;13.63;;
13335;SDS011;6737;51.480;11.962;2023-01-24T12:00:27;20.43;;;12.77;;
13335;SDS011;6737;51.480;11.962;2023-01-24T12:06:20;21.20;;;13.13;;
13335;SDS011;6737;51.480;11.962;2023-01-24T12:09:16;20.37;;;12.87;;
13335;SDS011;6737;51.480;11.962;2023-01-24T12:22:57;25.20;;;14.60;;
13335;SDS011;6737;51.480;11.962;2023-01-24T12:25:30;23.40;;;13.97;;
13335;SDS011;6737;51.480;11.962;2023-01-24T12:27:59;23.37;;;14.07;;
13335;SDS011;6737;51.480;11.962;2023-01-24T12:30:32;21.20;;;14.10;;
13335;SDS011;6737;51.480;11.962;2023-01-24T12:33:13;19.30;;;12.90;;
13335;SDS011;6737;51.480;11.962;2023-01-24T12:35:49;21.17;;;13.40;;
13335;SDS011;6737;51.480;11.962;2023-01-24T12:38:33;23.40;;;13.87;;
13335;SDS011;6737;51.480;11.962;2023-01-24T12:41:29;26.17;;;14.70;;
13335;SDS011;6737;51.480;11.962;2023-01-24T12:46:29;22.63;;;14.53;;
13335;SDS011;6737;51.480;11.962;2023-01-24T12:57:27;21.60;;;12.97;;
13335;SDS011;6737;51.480;11.962;2023-01-24T13:09:12;21.83;;;13.60;;
13335;SDS011;6737;51.480;11.962;2023-01-24T13:11:43;22.10;;;12.50;;
13335;SDS011;6737;51.480;11.962;2023-01-24T13:14:15;20.20;;;13.87;;
13335;SDS011;6737;51.480;11.962;2023-01-24T13:17:01;19.70;;;12.10;;
13335;SDS011;6737;51.480;11.962;2023-01-24T13:25:05;22.53;;;12.87;;
13335;SDS011;6737;51.480;11.962;2023-01-24T13:33:51;21.93;;;12.40;;
13335;SDS011;6737;51.480;11.962;2023-01-24T13:36:25;20.33;;;12.43;;
13335;SDS011;6737;51.480;11.962;2023-01-24T13:39:00;19.93;;;12.10;;
13335;SDS011;6737;51.480;11.962;2023-01-24T13:44:02;19.80;;;12.40;;
13335;SDS011;6737;51.480;11.962;2023-01-24T13:51:55;20.53;;;12.07;;
13335;SDS011;6737;51.480;11.962;2023-01-24T13:57:15;17.23;;;11.97;;
13335;SDS011;6737;51.480;11.962;2023-01-24T13:59:56;19.87;;;11.87;;
13335;SDS011;6737;51.480;11.962;2023-01-24T14:02:25;19.87;;;11.60;;
13335;SDS011;6737;51.480;11.962;2023-01-24T14:04:57;18.17;;;11.67;;
13335;SDS011;6737;51.480;11.962;2023-01-24T14:07:27;18.37;;;11.53;;
13335;SDS011;6737;51.480;11.962;2023-01-24T14:09:58;19.77;;;12.07;;
13335;SDS011;6737;51.480;11.962;2023-01-24T14:12:27;19.23;;;12.13;;
13335;SDS011;6737;51.480;11.962;2023-01-24T14:15:02;21.60;;;11.70;;
13335;SDS011;6737;51.480;11.962;2023-01-24T14:22:48;18.33;;;11.90;;
13335;SDS011;6737;51.480;11.962;2023-01-24T14:25:24;20.17;;;12.23;;
13335;SDS011;6737;51.480;11.962;2023-01-24T14:31:14;18.33;;;11.90;;
13335;SDS011;6737;51.480;11.962;2023-01-24T14:33:48;18.73;;;11.47;;
13335;SDS011;6737;51.480;11.962;2023-01-24T14:36:35;18.30;;;12.17;;
13335;SDS011;6737;51.480;11.962;2023-01-24T14:41:39;18.77;;;11.53;;
13335;SDS011;6737;51.480;11.962;2023-01-24T14:47:19;17.80;;;11.20;;
13335;SDS011;6737;51.480;11.962;2023-01-24T14:49:48;18.40;;;12.10;;
13335;SDS011;6737;51.480;11.962;2023-01-24T14:55:12;19.73;;;11.90;;
13335;SDS011;6737;51.480;11.962;2023-01-24T14:57:56;20.80;;;12.30;;
13335;SDS011;6737;51.480;11.962;2023-01-24T15:00:37;18.20;;;11.97;;
13335;SDS011;6737;51.480;11.962;2023-01-24T15:03:03;20.90;;;11.30;;
13335;SDS011;6737;51.480;11.962;2023-01-24T15:07:58;20.47;;;12.50;;
13335;SDS011;6737;51.480;11.962;2023-01-24T15:10:31;20.50;;;12.50;;
13335;SDS011;6737;51.480;11.962;2023-01-24T15:13:00;18.50;;;12.07;;
13335;SDS011;6737;51.480;11.962;2023-01-24T15:15:31;17.43;;;11.23;;
13335;SDS011;6737;51.480;11.962;2023-01-24T15:17:59;19.73;;;12.13;;
13335;SDS011;6737;51.480;11.962;2023-01-24T15:20:26;19.30;;;12.07;;
13335;SDS011;6737;51.480;11.962;2023-01-24T15:22:54;16.53;;;11.47;;
13335;SDS011;6737;51.480;11.962;2023-01-24T15:25:30;19.80;;;12.33;;
13335;SDS011;6737;51.480;11.962;2023-01-24T15:28:07;18.23;;;12.30;;
13335;SDS011;6737;51.480;11.962;2023-01-24T15:30:35;18.73;;;12.53;;
13335;SDS011;6737;51.480;11.962;2023-01-24T15:33:01;18.93;;;12.00;;
13335;SDS011;6737;51.480;11.962;2023-01-24T15:35:38;18.60;;;11.37;;
13335;SDS011;6737;51.480;11.962;2023-01-24T15:40:49;18.30;;;12.50;;
13335;SDS011;6737;51.480;11.962;2023-01-24T15:43:30;21.03;;;12.93;;
13335;SDS011;6737;51.480;11.962;2023-01-24T15:46:20;17.53;;;11.83;;
13335;SDS011;6737;51.480;11.962;2023-01-24T15:54:35;19.80;;;12.83;;
13335;SDS011;6737;51.480;11.962;2023-01-24T15:57:15;16.93;;;12.53;;
13335;SDS011;6737;51.480;11.962;2023-01-24T15:59:57;20.13;;;12.80;;
13335;SDS011;6737;51.480;11.962;2023-01-24T16:02:43;19.10;;;12.00;;
13335;SDS011;6737;51.480;11.962;2023-01-24T16:05:13;18.67;;;13.13;;
13335;SDS011;6737;51.480;11.962;2023-01-24T16:07:40;20.03;;;13.53;;
13335;SDS011;6737;51.480;11.962;2023-01-24T16:10:06;22.13;;;13.90;;
13335;SDS011;6737;51.480;11.962;2023-01-24T16:12:37;18.97;;;13.87;;
13335;SDS011;6737;51.480;11.962;2023-01-24T16:15:03;22.27;;;14.17;;
13335;SDS011;6737;51.480;11.962;2023-01-24T16:17:30;19.07;;;12.90;;
13335;SDS011;6737;51.480;11.962;2023-01-24T16:19:55;21.60;;;13.47;;
13335;SDS011;6737;51.480;11.962;2023-01-24T16:22:21;21.40;;;13.73;;
13335;SDS011;6737;51.480;11.962;2023-01-24T16:24:48;19.83;;;13.73;;
13335;SDS011;6737;51.480;11.962;2023-01-24T16:27:13;22.10;;;13.80;;
13335;SDS011;6737;51.480;11.962;2023-01-24T16:29:40;21.23;;;13.43;;
13335;SDS011;6737;51.480;11.962;2023-01-24T16:32:19;22.00;;;14.53;;
13335;SDS011;6737;51.480;11.962;2023-01-24T16:34:48;22.60;;;13.83;;
13335;SDS011;6737;51.480;11.962;2023-01-24T16:37:14;21.50;;;14.13;;
13335;SDS011;6737;51.480;11.962;2023-01-24T16:39:42;21.27;;;14.00;;
13335;SDS011;6737;51.480;11.962;2023-01-24T16:42:12;18.80;;;13.33;;
13335;SDS011;6737;51.480;11.962;2023-01-24T16:44:40;24.30;;;14.60;;
13335;SDS011;6737;51.480;11.962;2023-01-24T16:47:06;23.03;;;14.13;;
13335;SDS011;6737;51.480;11.962;2023-01-24T16:49:32;22.37;;;14.47;;
13335;SDS011;6737;51.480;11.962;2023-01-24T16:51:58;19.83;;;13.67;;
13335;SDS011;6737;51.480;11.962;2023-01-24T16:54:24;20.83;;;13.80;;
13335;SDS011;6737;51.480;11.962;2023-01-24T16:56:50;21.13;;;13.90;;
13335;SDS011;6737;51.480;11.962;2023-01-24T16:59:16;20.67;;;14.20;;
13335;SDS011;6737;51.480;11.962;2023-01-24T17:01:43;20.63;;;14.40;;
13335;SDS011;6737;51.480;11.962;2023-01-24T17:04:08;19.40;;;14.03;;
13335;SDS011;6737;51.480;11.962;2023-01-24T17:06:34;21.30;;;14.60;;
13335;SDS011;6737;51.480;11.962;2023-01-24T17:09:00;21.23;;;14.53;;
13335;SDS011;6737;51.480;11.962;2023-01-24T17:11:30;20.50;;;14.13;;
13335;SDS011;6737;51.480;11.962;2023-01-24T17:13:57;21.20;;;14.17;;